sensor_id;sensor_type;location;lat;lon;timestamp;P1;durP1;ratioP1;P2;durP2;ratioP2
11006;SDS011;8186;57.652;11.968;2022-10-22T00:00:57;4.57;;;4.17;;
11006;SDS011;8186;57.652;11.968;2022-10-22T00:03:24;4.97;;;4.57;;
11006;SDS011;8186;57.652;11.968;2022-10-22T00:05:51;5.20;;;4.23;;
11006;SDS011;8186;57.652;11.968;2022-10-22T00:08:18;4.87;;;4.07;;
11006;SDS011;8186;57.652;11.968;2022-10-22T00:10:47;5.17;;;3.83;;
11006;SDS011;8186;57.652;11.968;2022-10-22T00:13:14;5.50;;;4.40;;
11006;SDS011;8186;57.652;11.968;2022-10-22T00:15:41;5.80;;;3.87;;
11006;SDS011;8186;57.652;11.968;2022-10-22T00:18:08;4.30;;;3.90;;
11006;SDS011;8186;57.652;11.968;2022-10-22T00:20:34;4.57;;;4.10;;
11006;SDS011;8186;57.652;11.968;2022-10-22T00:23:01;4.30;;;3.90;;
11006;SDS011;8186;57.652;11.968;2022-10-22T00:25:28;5.07;;;4.20;;
11006;SDS011;8186;57.652;11.968;2022-10-22T00:27:57;5.80;;;4.13;;
11006;SDS011;8186;57.652;11.968;2022-10-22T00:30:23;4.37;;;3.97;;
11006;SDS011;8186;57.652;11.968;2022-10-22T00:32:50;7.33;;;4.63;;
11006;SDS011;8186;57.652;11.968;2022-10-22T00:35:17;4.20;;;3.80;;
11006;SDS011;8186;57.652;11.968;2022-10-22T00:37:44;4.50;;;4.07;;
11006;SDS011;8186;57.652;11.968;2022-10-22T00:40:13;4.70;;;4.07;;
11006;SDS011;8186;57.652;11.968;2022-10-22T00:42:41;4.67;;;3.67;;
11006;SDS011;8186;57.652;11.968;2022-10-22T00:45:17;4.50;;;4.10;;
11006;SDS011;8186;57.652;11.968;2022-10-22T00:47:51;4.20;;;3.80;;
11006;SDS011;8186;57.652;11.968;2022-10-22T00:50:22;4.23;;;3.83;;
11006;SDS011;8186;57.652;11.968;2022-10-22T00:52:52;5.37;;;3.80;;
11006;SDS011;8186;57.652;11.968;2022-10-22T00:55:20;4.40;;;4.00;;
11006;SDS011;8186;57.652;11.968;2022-10-22T00:57:48;4.03;;;3.63;;
11006;SDS011;8186;57.652;11.968;2022-10-22T01:00:16;4.90;;;4.40;;
11006;SDS011;8186;57.652;11.968;2022-10-22T01:02:43;7.00;;;3.90;;
11006;SDS011;8186;57.652;11.968;2022-10-22T01:05:10;4.43;;;3.93;;
11006;SDS011;8186;57.652;11.968;2022-10-22T01:07:40;4.33;;;3.97;;
11006;SDS011;8186;57.652;11.968;2022-10-22T01:10:10;5.20;;;3.90;;
11006;SDS011;8186;57.652;11.968;2022-10-22T01:12:44;6.07;;;4.20;;
11006;SDS011;8186;57.652;11.968;2022-10-22T01:15:17;4.73;;;4.03;;
11006;SDS011;8186;57.652;11.968;2022-10-22T01:17:49;6.03;;;4.07;;
11006;SDS011;8186;57.652;11.968;2022-10-22T01:20:31;4.20;;;3.80;;
11006;SDS011;8186;57.652;11.968;2022-10-22T01:23:15;4.37;;;3.93;;
11006;SDS011;8186;57.652;11.968;2022-10-22T01:25:48;5.03;;;4.30;;
11006;SDS011;8186;57.652;11.968;2022-10-22T01:28:21;5.77;;;4.00;;
11006;SDS011;8186;57.652;11.968;2022-10-22T01:30:52;4.03;;;3.73;;
11006;SDS011;8186;57.652;11.968;2022-10-22T01:33:20;5.60;;;4.30;;
11006;SDS011;8186;57.652;11.968;2022-10-22T01:35:48;4.10;;;3.70;;
11006;SDS011;8186;57.652;11.968;2022-10-22T01:38:16;4.50;;;4.10;;
11006;SDS011;8186;57.652;11.968;2022-10-22T01:40:45;4.60;;;4.20;;
11006;SDS011;8186;57.652;11.968;2022-10-22T01:43:13;5.10;;;4.13;;
11006;SDS011;8186;57.652;11.968;2022-10-22T01:45:41;4.40;;;4.00;;
11006;SDS011;8186;57.652;11.968;2022-10-22T01:48:19;4.13;;;3.63;;
11006;SDS011;8186;57.652;11.968;2022-10-22T01:50:54;4.90;;;4.40;;
11006;SDS011;8186;57.652;11.968;2022-10-22T01:53:31;4.27;;;3.87;;
11006;SDS011;8186;57.652;11.968;2022-10-22T01:56:08;4.10;;;3.70;;
11006;SDS011;8186;57.652;11.968;2022-10-22T01:58:42;4.90;;;4.50;;
11006;SDS011;8186;57.652;11.968;2022-10-22T02:01:15;4.23;;;3.83;;
11006;SDS011;8186;57.652;11.968;2022-10-22T02:03:47;5.53;;;4.93;;
11006;SDS011;8186;57.652;11.968;2022-10-22T02:06:18;4.83;;;4.33;;
11006;SDS011;8186;57.652;11.968;2022-10-22T02:08:46;4.20;;;3.80;;
11006;SDS011;8186;57.652;11.968;2022-10-22T02:11:15;4.53;;;4.13;;
11006;SDS011;8186;57.652;11.968;2022-10-22T02:13:42;5.63;;;3.97;;
11006;SDS011;8186;57.652;11.968;2022-10-22T02:16:13;4.10;;;3.80;;
11006;SDS011;8186;57.652;11.968;2022-10-22T02:18:42;4.63;;;4.20;;
11006;SDS011;8186;57.652;11.968;2022-10-22T02:21:12;4.07;;;3.77;;
11006;SDS011;8186;57.652;11.968;2022-10-22T02:23:40;4.77;;;4.20;;
11006;SDS011;8186;57.652;11.968;2022-10-22T02:26:08;4.60;;;4.20;;
11006;SDS011;8186;57.652;11.968;2022-10-22T02:28:41;4.17;;;3.77;;
11006;SDS011;8186;57.652;11.968;2022-10-22T02:31:12;4.40;;;4.00;;
11006;SDS011;8186;57.652;11.968;2022-10-22T02:33:41;5.53;;;3.97;;
11006;SDS011;8186;57.652;11.968;2022-10-22T02:36:10;4.40;;;3.77;;
11006;SDS011;8186;57.652;11.968;2022-10-22T02:38:38;6.83;;;4.40;;
11006;SDS011;8186;57.652;11.968;2022-10-22T02:41:06;4.03;;;3.67;;
11006;SDS011;8186;57.652;11.968;2022-10-22T02:43:37;4.03;;;3.63;;
11006;SDS011;8186;57.652;11.968;2022-10-22T02:46:05;4.37;;;4.03;;
11006;SDS011;8186;57.652;11.968;2022-10-22T02:48:32;4.77;;;3.97;;
11006;SDS011;8186;57.652;11.968;2022-10-22T02:50:59;4.80;;;4.40;;
11006;SDS011;8186;57.652;11.968;2022-10-22T02:53:27;4.23;;;3.93;;
11006;SDS011;8186;57.652;11.968;2022-10-22T02:55:57;4.47;;;3.90;;
11006;SDS011;8186;57.652;11.968;2022-10-22T02:58:24;4.30;;;3.90;;
11006;SDS011;8186;57.652;11.968;2022-10-22T03:00:51;4.00;;;3.60;;
11006;SDS011;8186;57.652;11.968;2022-10-22T03:03:17;5.73;;;3.90;;
11006;SDS011;8186;57.652;11.968;2022-10-22T03:05:44;4.63;;;4.23;;
11006;SDS011;8186;57.652;11.968;2022-10-22T03:08:11;4.87;;;4.47;;
11006;SDS011;8186;57.652;11.968;2022-10-22T03:10:39;3.93;;;3.63;;
11006;SDS011;8186;57.652;11.968;2022-10-22T03:13:06;4.13;;;3.77;;
11006;SDS011;8186;57.652;11.968;2022-10-22T03:15:33;4.20;;;3.80;;
11006;SDS011;8186;57.652;11.968;2022-10-22T03:18:00;4.30;;;3.80;;
11006;SDS011;8186;57.652;11.968;2022-10-22T03:20:27;3.63;;;3.33;;
11006;SDS011;8186;57.652;11.968;2022-10-22T03:22:54;4.30;;;3.90;;
11006;SDS011;8186;57.652;11.968;2022-10-22T03:25:22;4.00;;;3.70;;
11006;SDS011;8186;57.652;11.968;2022-10-22T03:27:52;3.80;;;3.50;;
11006;SDS011;8186;57.652;11.968;2022-10-22T03:30:20;3.93;;;3.60;;
11006;SDS011;8186;57.652;11.968;2022-10-22T03:32:47;5.40;;;3.83;;
11006;SDS011;8186;57.652;11.968;2022-10-22T03:35:14;4.07;;;3.67;;
11006;SDS011;8186;57.652;11.968;2022-10-22T03:37:41;5.07;;;3.57;;
11006;SDS011;8186;57.652;11.968;2022-10-22T03:40:08;11.93;;;4.20;;
11006;SDS011;8186;57.652;11.968;2022-10-22T03:42:37;5.73;;;3.77;;
11006;SDS011;8186;57.652;11.968;2022-10-22T03:45:06;3.70;;;3.40;;
11006;SDS011;8186;57.652;11.968;2022-10-22T03:47:34;4.20;;;3.77;;
11006;SDS011;8186;57.652;11.968;2022-10-22T03:50:02;3.90;;;3.60;;
11006;SDS011;8186;57.652;11.968;2022-10-22T03:52:33;7.80;;;3.87;;
11006;SDS011;8186;57.652;11.968;2022-10-22T03:55:01;4.07;;;3.67;;
11006;SDS011;8186;57.652;11.968;2022-10-22T03:57:29;5.67;;;3.80;;
11006;SDS011;8186;57.652;11.968;2022-10-22T03:59:56;3.23;;;3.03;;
11006;SDS011;8186;57.652;11.968;2022-10-22T04:02:24;3.43;;;3.17;;
11006;SDS011;8186;57.652;11.968;2022-10-22T04:04:51;3.93;;;3.23;;
11006;SDS011;8186;57.652;11.968;2022-10-22T04:07:18;3.63;;;3.33;;
11006;SDS011;8186;57.652;11.968;2022-10-22T04:09:45;4.40;;;4.00;;
11006;SDS011;8186;57.652;11.968;2022-10-22T04:12:12;7.03;;;3.90;;
11006;SDS011;8186;57.652;11.968;2022-10-22T04:14:38;3.57;;;3.30;;
11006;SDS011;8186;57.652;11.968;2022-10-22T04:17:07;3.93;;;3.63;;
11006;SDS011;8186;57.652;11.968;2022-10-22T04:19:36;3.67;;;3.33;;
11006;SDS011;8186;57.652;11.968;2022-10-22T04:22:03;3.87;;;3.57;;
11006;SDS011;8186;57.652;11.968;2022-10-22T04:24:30;3.83;;;3.50;;
11006;SDS011;8186;57.652;11.968;2022-10-22T04:26:58;3.03;;;2.83;;
11006;SDS011;8186;57.652;11.968;2022-10-22T04:29:25;3.90;;;3.60;;
11006;SDS011;8186;57.652;11.968;2022-10-22T04:31:52;3.70;;;3.40;;
11006;SDS011;8186;57.652;11.968;2022-10-22T04:34:19;3.30;;;3.00;;
11006;SDS011;8186;57.652;11.968;2022-10-22T04:36:47;3.80;;;3.50;;
11006;SDS011;8186;57.652;11.968;2022-10-22T04:39:14;3.43;;;3.13;;
11006;SDS011;8186;57.652;11.968;2022-10-22T04:41:41;3.30;;;3.00;;
11006;SDS011;8186;57.652;11.968;2022-10-22T04:44:08;4.80;;;3.10;;
11006;SDS011;8186;57.652;11.968;2022-10-22T04:46:35;3.37;;;3.07;;
11006;SDS011;8186;57.652;11.968;2022-10-22T04:49:02;2.63;;;2.43;;
11006;SDS011;8186;57.652;11.968;2022-10-22T04:51:29;4.00;;;2.93;;
11006;SDS011;8186;57.652;11.968;2022-10-22T04:53:58;3.10;;;2.90;;
11006;SDS011;8186;57.652;11.968;2022-10-22T04:56:26;3.17;;;2.87;;
11006;SDS011;8186;57.652;11.968;2022-10-22T04:58:54;3.40;;;3.10;;
11006;SDS011;8186;57.652;11.968;2022-10-22T05:01:22;3.03;;;2.83;;
11006;SDS011;8186;57.652;11.968;2022-10-22T05:03:51;2.80;;;2.60;;
11006;SDS011;8186;57.652;11.968;2022-10-22T05:06:20;2.97;;;2.77;;
11006;SDS011;8186;57.652;11.968;2022-10-22T05:08:50;2.90;;;2.70;;
11006;SDS011;8186;57.652;11.968;2022-10-22T05:11:20;3.00;;;2.80;;
11006;SDS011;8186;57.652;11.968;2022-10-22T05:13:47;3.00;;;2.80;;
11006;SDS011;8186;57.652;11.968;2022-10-22T05:16:14;3.20;;;2.50;;
11006;SDS011;8186;57.652;11.968;2022-10-22T05:18:42;4.43;;;3.07;;
11006;SDS011;8186;57.652;11.968;2022-10-22T05:21:11;2.77;;;2.57;;
11006;SDS011;8186;57.652;11.968;2022-10-22T05:23:40;3.03;;;2.70;;
11006;SDS011;8186;57.652;11.968;2022-10-22T05:26:08;2.93;;;2.73;;
11006;SDS011;8186;57.652;11.968;2022-10-22T05:28:37;2.57;;;2.37;;
11006;SDS011;8186;57.652;11.968;2022-10-22T05:31:05;2.70;;;2.50;;
11006;SDS011;8186;57.652;11.968;2022-10-22T05:33:33;4.80;;;2.80;;
11006;SDS011;8186;57.652;11.968;2022-10-22T05:36:00;3.13;;;2.93;;
11006;SDS011;8186;57.652;11.968;2022-10-22T05:38:28;3.40;;;3.10;;
11006;SDS011;8186;57.652;11.968;2022-10-22T05:40:58;2.90;;;2.70;;
11006;SDS011;8186;57.652;11.968;2022-10-22T05:43:26;2.33;;;2.13;;
11006;SDS011;8186;57.652;11.968;2022-10-22T05:45:55;2.80;;;2.60;;
11006;SDS011;8186;57.652;11.968;2022-10-22T05:48:22;2.50;;;2.30;;
11006;SDS011;8186;57.652;11.968;2022-10-22T05:50:49;2.73;;;2.53;;
11006;SDS011;8186;57.652;11.968;2022-10-22T05:53:16;2.93;;;2.73;;
11006;SDS011;8186;57.652;11.968;2022-10-22T05:55:43;2.90;;;2.70;;
11006;SDS011;8186;57.652;11.968;2022-10-22T05:58:10;2.70;;;2.50;;
11006;SDS011;8186;57.652;11.968;2022-10-22T06:00:38;2.90;;;2.37;;
11006;SDS011;8186;57.652;11.968;2022-10-22T06:03:06;2.80;;;2.60;;
11006;SDS011;8186;57.652;11.968;2022-10-22T06:05:33;2.63;;;2.43;;
11006;SDS011;8186;57.652;11.968;2022-10-22T06:08:00;9.83;;;2.77;;
11006;SDS011;8186;57.652;11.968;2022-10-22T06:10:27;3.30;;;2.40;;
11006;SDS011;8186;57.652;11.968;2022-10-22T06:12:54;2.40;;;2.20;;
11006;SDS011;8186;57.652;11.968;2022-10-22T06:15:21;2.93;;;2.30;;
11006;SDS011;8186;57.652;11.968;2022-10-22T06:17:48;2.50;;;2.30;;
11006;SDS011;8186;57.652;11.968;2022-10-22T06:20:16;2.37;;;2.17;;
11006;SDS011;8186;57.652;11.968;2022-10-22T06:22:43;2.20;;;2.10;;
11006;SDS011;8186;57.652;11.968;2022-10-22T06:25:10;2.20;;;2.10;;
11006;SDS011;8186;57.652;11.968;2022-10-22T06:27:38;4.00;;;2.60;;
11006;SDS011;8186;57.652;11.968;2022-10-22T06:30:05;2.77;;;2.30;;
11006;SDS011;8186;57.652;11.968;2022-10-22T06:32:34;2.30;;;2.10;;
11006;SDS011;8186;57.652;11.968;2022-10-22T06:35:00;2.40;;;2.20;;
11006;SDS011;8186;57.652;11.968;2022-10-22T06:37:30;2.50;;;2.30;;
11006;SDS011;8186;57.652;11.968;2022-10-22T06:39:57;2.50;;;2.30;;
11006;SDS011;8186;57.652;11.968;2022-10-22T06:42:25;2.20;;;2.00;;
11006;SDS011;8186;57.652;11.968;2022-10-22T06:44:53;2.47;;;2.27;;
11006;SDS011;8186;57.652;11.968;2022-10-22T06:47:23;2.23;;;2.10;;
11006;SDS011;8186;57.652;11.968;2022-10-22T06:49:55;2.90;;;2.23;;
11006;SDS011;8186;57.652;11.968;2022-10-22T06:52:25;2.47;;;2.27;;
11006;SDS011;8186;57.652;11.968;2022-10-22T06:54:55;2.67;;;2.43;;
11006;SDS011;8186;57.652;11.968;2022-10-22T06:57:22;2.77;;;2.33;;
11006;SDS011;8186;57.652;11.968;2022-10-22T06:59:54;2.40;;;2.20;;
11006;SDS011;8186;57.652;11.968;2022-10-22T07:02:22;2.37;;;2.17;;
11006;SDS011;8186;57.652;11.968;2022-10-22T07:04:51;3.00;;;2.10;;
11006;SDS011;8186;57.652;11.968;2022-10-22T07:07:18;2.63;;;2.40;;
11006;SDS011;8186;57.652;11.968;2022-10-22T07:09:48;3.07;;;2.00;;
11006;SDS011;8186;57.652;11.968;2022-10-22T07:12:18;2.50;;;2.30;;
11006;SDS011;8186;57.652;11.968;2022-10-22T07:14:46;2.47;;;2.27;;
11006;SDS011;8186;57.652;11.968;2022-10-22T07:17:16;2.13;;;2.00;;
11006;SDS011;8186;57.652;11.968;2022-10-22T07:19:53;2.47;;;2.27;;
11006;SDS011;8186;57.652;11.968;2022-10-22T07:22:20;3.37;;;2.30;;
11006;SDS011;8186;57.652;11.968;2022-10-22T07:24:52;2.33;;;2.20;;
11006;SDS011;8186;57.652;11.968;2022-10-22T07:27:22;2.80;;;2.60;;
11006;SDS011;8186;57.652;11.968;2022-10-22T07:29:48;3.33;;;2.80;;
11006;SDS011;8186;57.652;11.968;2022-10-22T07:32:16;2.40;;;2.27;;
11006;SDS011;8186;57.652;11.968;2022-10-22T07:34:43;2.57;;;2.37;;
11006;SDS011;8186;57.652;11.968;2022-10-22T07:37:16;2.70;;;2.50;;
11006;SDS011;8186;57.652;11.968;2022-10-22T07:39:46;2.73;;;2.53;;
11006;SDS011;8186;57.652;11.968;2022-10-22T07:42:13;3.60;;;2.57;;
11006;SDS011;8186;57.652;11.968;2022-10-22T07:44:50;3.90;;;2.40;;
11006;SDS011;8186;57.652;11.968;2022-10-22T07:47:17;2.50;;;2.30;;
11006;SDS011;8186;57.652;11.968;2022-10-22T07:49:45;3.80;;;2.50;;
11006;SDS011;8186;57.652;11.968;2022-10-22T07:52:17;3.40;;;2.60;;
11006;SDS011;8186;57.652;11.968;2022-10-22T07:54:44;7.87;;;2.47;;
11006;SDS011;8186;57.652;11.968;2022-10-22T07:57:13;3.53;;;2.63;;
11006;SDS011;8186;57.652;11.968;2022-10-22T07:59:40;3.77;;;2.57;;
11006;SDS011;8186;57.652;11.968;2022-10-22T08:02:09;3.00;;;2.30;;
11006;SDS011;8186;57.652;11.968;2022-10-22T08:04:37;10.30;;;3.00;;
11006;SDS011;8186;57.652;11.968;2022-10-22T08:07:06;2.70;;;2.50;;
11006;SDS011;8186;57.652;11.968;2022-10-22T08:09:35;3.87;;;2.83;;
11006;SDS011;8186;57.652;11.968;2022-10-22T08:12:07;5.73;;;2.83;;
11006;SDS011;8186;57.652;11.968;2022-10-22T08:14:35;2.67;;;2.47;;
11006;SDS011;8186;57.652;11.968;2022-10-22T08:17:02;2.33;;;2.13;;
11006;SDS011;8186;57.652;11.968;2022-10-22T08:19:31;2.70;;;2.50;;
11006;SDS011;8186;57.652;11.968;2022-10-22T08:21:59;2.93;;;2.53;;
11006;SDS011;8186;57.652;11.968;2022-10-22T08:24:27;2.47;;;2.27;;
11006;SDS011;8186;57.652;11.968;2022-10-22T08:26:56;4.17;;;2.10;;
11006;SDS011;8186;57.652;11.968;2022-10-22T08:29:23;2.27;;;2.10;;
11006;SDS011;8186;57.652;11.968;2022-10-22T08:31:51;2.37;;;2.20;;
11006;SDS011;8186;57.652;11.968;2022-10-22T08:34:21;2.63;;;2.43;;
11006;SDS011;8186;57.652;11.968;2022-10-22T08:36:51;2.60;;;2.40;;
11006;SDS011;8186;57.652;11.968;2022-10-22T08:39:19;2.60;;;2.40;;
11006;SDS011;8186;57.652;11.968;2022-10-22T08:41:51;4.83;;;2.70;;
11006;SDS011;8186;57.652;11.968;2022-10-22T08:44:27;2.83;;;2.57;;
11006;SDS011;8186;57.652;11.968;2022-10-22T08:47:13;2.90;;;2.63;;
11006;SDS011;8186;57.652;11.968;2022-10-22T08:49:49;2.80;;;2.50;;
11006;SDS011;8186;57.652;11.968;2022-10-22T08:52:20;3.50;;;2.70;;
11006;SDS011;8186;57.652;11.968;2022-10-22T08:54:49;3.10;;;2.80;;
11006;SDS011;8186;57.652;11.968;2022-10-22T08:57:31;3.13;;;2.83;;
11006;SDS011;8186;57.652;11.968;2022-10-22T09:00:05;3.93;;;2.80;;
11006;SDS011;8186;57.652;11.968;2022-10-22T09:02:39;3.50;;;2.90;;
11006;SDS011;8186;57.652;11.968;2022-10-22T09:05:22;6.80;;;3.40;;
11006;SDS011;8186;57.652;11.968;2022-10-22T09:07:58;3.07;;;2.77;;
11006;SDS011;8186;57.652;11.968;2022-10-22T09:10:26;3.23;;;2.90;;
11006;SDS011;8186;57.652;11.968;2022-10-22T09:12:55;4.37;;;3.37;;
11006;SDS011;8186;57.652;11.968;2022-10-22T09:15:23;4.53;;;3.15;;
11006;SDS011;8186;57.652;11.968;2022-10-22T09:17:57;3.10;;;2.77;;
11006;SDS011;8186;57.652;11.968;2022-10-22T09:20:31;7.30;;;3.63;;
11006;SDS011;8186;57.652;11.968;2022-10-22T09:23:09;4.13;;;3.73;;
11006;SDS011;8186;57.652;11.968;2022-10-22T09:25:43;4.77;;;4.37;;
11006;SDS011;8186;57.652;11.968;2022-10-22T09:28:11;5.40;;;4.20;;
11006;SDS011;8186;57.652;11.968;2022-10-22T09:30:38;4.80;;;4.40;;
11006;SDS011;8186;57.652;11.968;2022-10-22T09:33:10;5.53;;;4.87;;
11006;SDS011;8186;57.652;11.968;2022-10-22T09:35:43;7.33;;;5.03;;
11006;SDS011;8186;57.652;11.968;2022-10-22T09:38:14;6.23;;;5.63;;
11006;SDS011;8186;57.652;11.968;2022-10-22T09:40:43;5.23;;;4.73;;
11006;SDS011;8186;57.652;11.968;2022-10-22T09:43:11;5.53;;;4.97;;
11006;SDS011;8186;57.652;11.968;2022-10-22T09:45:39;5.43;;;4.93;;
11006;SDS011;8186;57.652;11.968;2022-10-22T09:48:09;6.60;;;6.00;;
11006;SDS011;8186;57.652;11.968;2022-10-22T09:50:42;7.57;;;6.87;;
11006;SDS011;8186;57.652;11.968;2022-10-22T09:53:16;9.67;;;8.00;;
11006;SDS011;8186;57.652;11.968;2022-10-22T09:55:48;7.53;;;6.67;;
11006;SDS011;8186;57.652;11.968;2022-10-22T09:58:16;7.07;;;6.37;;
11006;SDS011;8186;57.652;11.968;2022-10-22T10:00:44;7.60;;;6.57;;
11006;SDS011;8186;57.652;11.968;2022-10-22T10:03:14;7.37;;;6.47;;
11006;SDS011;8186;57.652;11.968;2022-10-22T10:05:45;6.90;;;6.30;;
11006;SDS011;8186;57.652;11.968;2022-10-22T10:08:16;12.43;;;6.67;;
11006;SDS011;8186;57.652;11.968;2022-10-22T10:10:44;8.33;;;6.33;;
11006;SDS011;8186;57.652;11.968;2022-10-22T10:16:23;6.60;;;6.00;;
11006;SDS011;8186;57.652;11.968;2022-10-22T10:18:56;6.30;;;5.67;;
11006;SDS011;8186;57.652;11.968;2022-10-22T10:21:29;8.43;;;5.07;;
11006;SDS011;8186;57.652;11.968;2022-10-22T10:24:03;5.60;;;4.80;;
11006;SDS011;8186;57.652;11.968;2022-10-22T10:26:36;5.30;;;4.30;;
11006;SDS011;8186;57.652;11.968;2022-10-22T10:29:17;4.30;;;3.80;;
11006;SDS011;8186;57.652;11.968;2022-10-22T10:31:55;6.57;;;3.70;;
11006;SDS011;8186;57.652;11.968;2022-10-22T10:34:30;5.67;;;3.80;;
11006;SDS011;8186;57.652;11.968;2022-10-22T10:37:03;8.60;;;3.93;;
11006;SDS011;8186;57.652;11.968;2022-10-22T10:39:39;4.27;;;3.27;;
11006;SDS011;8186;57.652;11.968;2022-10-22T10:42:14;4.67;;;3.20;;
11006;SDS011;8186;57.652;11.968;2022-10-22T10:44:53;6.80;;;3.33;;
11006;SDS011;8186;57.652;11.968;2022-10-22T10:47:31;3.97;;;3.20;;
11006;SDS011;8186;57.652;11.968;2022-10-22T10:50:12;3.20;;;2.90;;
11006;SDS011;8186;57.652;11.968;2022-10-22T10:52:44;3.37;;;3.07;;
11006;SDS011;8186;57.652;11.968;2022-10-22T10:55:19;3.73;;;3.43;;
11006;SDS011;8186;57.652;11.968;2022-10-22T10:57:52;3.67;;;3.37;;
11006;SDS011;8186;57.652;11.968;2022-10-22T11:00:29;3.80;;;3.10;;
11006;SDS011;8186;57.652;11.968;2022-10-22T11:03:01;3.63;;;3.33;;
11006;SDS011;8186;57.652;11.968;2022-10-22T11:05:51;4.20;;;3.87;;
11006;SDS011;8186;57.652;11.968;2022-10-22T11:08:20;4.40;;;4.00;;
11006;SDS011;8186;57.652;11.968;2022-10-22T11:10:50;7.40;;;3.77;;
11006;SDS011;8186;57.652;11.968;2022-10-22T11:13:20;6.30;;;3.23;;
11006;SDS011;8186;57.652;11.968;2022-10-22T11:15:53;3.83;;;3.23;;
11006;SDS011;8186;57.652;11.968;2022-10-22T11:18:23;3.87;;;3.40;;
11006;SDS011;8186;57.652;11.968;2022-10-22T11:21:00;3.77;;;3.30;;
11006;SDS011;8186;57.652;11.968;2022-10-22T11:23:34;3.53;;;3.23;;
11006;SDS011;8186;57.652;11.968;2022-10-22T11:26:04;4.50;;;4.10;;
11006;SDS011;8186;57.652;11.968;2022-10-22T11:28:36;7.23;;;4.13;;
11006;SDS011;8186;57.652;11.968;2022-10-22T11:31:08;4.57;;;4.17;;
11006;SDS011;8186;57.652;11.968;2022-10-22T11:33:40;6.40;;;4.73;;
11006;SDS011;8186;57.652;11.968;2022-10-22T11:36:10;4.90;;;4.50;;
11006;SDS011;8186;57.652;11.968;2022-10-22T11:38:38;3.90;;;3.60;;
11006;SDS011;8186;57.652;11.968;2022-10-22T11:41:08;4.17;;;3.67;;
11006;SDS011;8186;57.652;11.968;2022-10-22T11:43:50;4.03;;;3.50;;
11006;SDS011;8186;57.652;11.968;2022-10-22T11:46:33;4.87;;;3.10;;
11006;SDS011;8186;57.652;11.968;2022-10-22T11:49:13;3.93;;;3.60;;
11006;SDS011;8186;57.652;11.968;2022-10-22T11:51:43;3.63;;;3.30;;
11006;SDS011;8186;57.652;11.968;2022-10-22T11:54:28;4.93;;;3.10;;
11006;SDS011;8186;57.652;11.968;2022-10-22T11:57:11;4.50;;;3.03;;
11006;SDS011;8186;57.652;11.968;2022-10-22T11:59:46;3.60;;;3.30;;
11006;SDS011;8186;57.652;11.968;2022-10-22T12:02:22;4.80;;;3.33;;
11006;SDS011;8186;57.652;11.968;2022-10-22T12:08:00;3.03;;;2.70;;
11006;SDS011;8186;57.652;11.968;2022-10-22T12:10:33;3.47;;;2.80;;
11006;SDS011;8186;57.652;11.968;2022-10-22T12:13:04;4.17;;;2.70;;
11006;SDS011;8186;57.652;11.968;2022-10-22T12:15:45;2.83;;;2.63;;
11006;SDS011;8186;57.652;11.968;2022-10-22T12:18:12;3.50;;;2.53;;
11006;SDS011;8186;57.652;11.968;2022-10-22T12:20:40;2.40;;;2.20;;
11006;SDS011;8186;57.652;11.968;2022-10-22T12:23:08;2.73;;;2.53;;
11006;SDS011;8186;57.652;11.968;2022-10-22T12:25:35;2.60;;;2.40;;
11006;SDS011;8186;57.652;11.968;2022-10-22T12:28:08;3.80;;;2.80;;
11006;SDS011;8186;57.652;11.968;2022-10-22T12:30:37;3.57;;;2.70;;
11006;SDS011;8186;57.652;11.968;2022-10-22T12:33:04;2.87;;;2.60;;
11006;SDS011;8186;57.652;11.968;2022-10-22T12:35:33;2.60;;;2.40;;
11006;SDS011;8186;57.652;11.968;2022-10-22T12:38:12;2.50;;;2.30;;
11006;SDS011;8186;57.652;11.968;2022-10-22T12:40:39;1.77;;;1.67;;
11006;SDS011;8186;57.652;11.968;2022-10-22T12:43:10;2.50;;;2.30;;
11006;SDS011;8186;57.652;11.968;2022-10-22T12:45:38;2.40;;;2.20;;
11006;SDS011;8186;57.652;11.968;2022-10-22T12:48:07;3.07;;;2.10;;
11006;SDS011;8186;57.652;11.968;2022-10-22T12:50:41;2.53;;;2.20;;
11006;SDS011;8186;57.652;11.968;2022-10-22T12:53:11;2.13;;;1.90;;
11006;SDS011;8186;57.652;11.968;2022-10-22T12:55:39;3.27;;;2.23;;
11006;SDS011;8186;57.652;11.968;2022-10-22T12:58:10;3.73;;;2.00;;
11006;SDS011;8186;57.652;11.968;2022-10-22T13:00:39;2.50;;;2.30;;
11006;SDS011;8186;57.652;11.968;2022-10-22T13:03:06;2.70;;;2.50;;
11006;SDS011;8186;57.652;11.968;2022-10-22T13:05:33;2.63;;;2.43;;
11006;SDS011;8186;57.652;11.968;2022-10-22T13:08:04;3.37;;;2.57;;
11006;SDS011;8186;57.652;11.968;2022-10-22T13:10:34;3.77;;;2.70;;
11006;SDS011;8186;57.652;11.968;2022-10-22T13:13:02;3.20;;;2.90;;
11006;SDS011;8186;57.652;11.968;2022-10-22T13:15:33;3.47;;;3.17;;
11006;SDS011;8186;57.652;11.968;2022-10-22T13:18:16;3.60;;;3.30;;
11006;SDS011;8186;57.652;11.968;2022-10-22T13:20:54;3.03;;;2.83;;
11006;SDS011;8186;57.652;11.968;2022-10-22T13:23:23;3.23;;;2.87;;
11006;SDS011;8186;57.652;11.968;2022-10-22T13:25:58;3.47;;;2.37;;
11006;SDS011;8186;57.652;11.968;2022-10-22T13:28:26;3.40;;;2.53;;
11006;SDS011;8186;57.652;11.968;2022-10-22T13:30:55;3.20;;;2.90;;
11006;SDS011;8186;57.652;11.968;2022-10-22T13:33:24;2.67;;;2.47;;
11006;SDS011;8186;57.652;11.968;2022-10-22T13:35:54;3.27;;;2.50;;
11006;SDS011;8186;57.652;11.968;2022-10-22T13:38:22;3.00;;;2.80;;
11006;SDS011;8186;57.652;11.968;2022-10-22T13:40:50;3.07;;;2.77;;
11006;SDS011;8186;57.652;11.968;2022-10-22T13:43:17;3.10;;;2.90;;
11006;SDS011;8186;57.652;11.968;2022-10-22T13:45:45;2.73;;;2.53;;
11006;SDS011;8186;57.652;11.968;2022-10-22T13:48:14;4.57;;;4.17;;
11006;SDS011;8186;57.652;11.968;2022-10-22T13:50:43;5.33;;;4.83;;
11006;SDS011;8186;57.652;11.968;2022-10-22T13:53:13;5.80;;;5.40;;
11006;SDS011;8186;57.652;11.968;2022-10-22T13:55:42;7.57;;;5.13;;
11006;SDS011;8186;57.652;11.968;2022-10-22T13:58:10;6.40;;;4.37;;
11006;SDS011;8186;57.652;11.968;2022-10-22T14:00:39;4.87;;;4.20;;
11006;SDS011;8186;57.652;11.968;2022-10-22T14:03:08;4.60;;;4.10;;
11006;SDS011;8186;57.652;11.968;2022-10-22T14:05:37;4.07;;;3.77;;
11006;SDS011;8186;57.652;11.968;2022-10-22T14:08:04;4.07;;;3.77;;
11006;SDS011;8186;57.652;11.968;2022-10-22T14:10:35;4.10;;;3.80;;
11006;SDS011;8186;57.652;11.968;2022-10-22T14:13:02;3.93;;;3.63;;
11006;SDS011;8186;57.652;11.968;2022-10-22T14:15:31;2.97;;;2.73;;
11006;SDS011;8186;57.652;11.968;2022-10-22T14:17:59;3.00;;;2.70;;
11006;SDS011;8186;57.652;11.968;2022-10-22T14:20:30;3.93;;;3.00;;
11006;SDS011;8186;57.652;11.968;2022-10-22T14:23:01;2.93;;;2.73;;
11006;SDS011;8186;57.652;11.968;2022-10-22T14:25:33;7.40;;;2.57;;
11006;SDS011;8186;57.652;11.968;2022-10-22T14:28:00;3.27;;;2.93;;
11006;SDS011;8186;57.652;11.968;2022-10-22T14:30:26;3.30;;;3.10;;
11006;SDS011;8186;57.652;11.968;2022-10-22T14:32:54;3.67;;;3.37;;
11006;SDS011;8186;57.652;11.968;2022-10-22T14:35:23;6.43;;;3.53;;
11006;SDS011;8186;57.652;11.968;2022-10-22T14:37:52;5.33;;;3.30;;
11006;SDS011;8186;57.652;11.968;2022-10-22T14:40:23;3.17;;;2.83;;
11006;SDS011;8186;57.652;11.968;2022-10-22T14:42:50;3.90;;;3.03;;
11006;SDS011;8186;57.652;11.968;2022-10-22T14:45:18;4.20;;;2.80;;
11006;SDS011;8186;57.652;11.968;2022-10-22T14:47:46;3.97;;;2.80;;
11006;SDS011;8186;57.652;11.968;2022-10-22T14:50:14;5.20;;;3.17;;
11006;SDS011;8186;57.652;11.968;2022-10-22T14:52:41;2.80;;;2.60;;
11006;SDS011;8186;57.652;11.968;2022-10-22T14:55:08;3.00;;;2.80;;
11006;SDS011;8186;57.652;11.968;2022-10-22T14:57:37;3.03;;;2.83;;
11006;SDS011;8186;57.652;11.968;2022-10-22T15:00:05;2.90;;;2.60;;
11006;SDS011;8186;57.652;11.968;2022-10-22T15:02:40;4.57;;;3.00;;
11006;SDS011;8186;57.652;11.968;2022-10-22T15:05:07;2.47;;;2.23;;
11006;SDS011;8186;57.652;11.968;2022-10-22T15:07:35;6.93;;;2.70;;
11006;SDS011;8186;57.652;11.968;2022-10-22T15:10:03;5.33;;;3.10;;